Time;durP1;ratioP1;P1;durP2;ratioP2;P2;SDS_P1;SDS_P2;PMS_P1;PMS_P2;Temp;Humidity;BMP_temperature;BMP_pressure;BME280_temperature;BME280_humidity;BME280_pressure;Samples;Min_cycle;Max_cycle;Signal;HPM_P1;HPM_P2
2024/01/16 00:02:40;;;;;;;3.58;1.60;;;-3.00;99.90;;;;;;20978806;28;20036;-47
2024/01/16 00:12:42;;;;;;;3.55;1.33;;;-2.90;99.90;;;;;;20956748;28;20490;-44
2024/01/16 00:22:43;;;;;;;3.08;1.70;;;-2.40;99.90;;;;;;20962493;28;20200;-45
2024/01/16 00:32:45;;;;;;;2.38;1.42;;;-1.80;99.90;;;;;;20976892;28;20059;-43
2024/01/16 00:42:47;;;;;;;1.83;1.02;;;-1.30;99.90;;;;;;20966221;28;20410;-44
2024/01/16 00:52:52;;;;;;;1.85;0.88;;;-0.90;99.90;;;;;;20954640;28;20062;-44
2024/01/16 01:02:53;;;;;;;1.50;0.68;;;-0.90;98.90;;;;;;20933588;28;20099;-42
2024/01/16 01:12:55;;;;;;;1.10;0.40;;;-0.60;96.20;;;;;;20944057;28;20036;-42
2024/01/16 01:22:58;;;;;;;0.55;0.20;;;-0.80;93.60;;;;;;20925373;28;20036;-44
2024/01/16 01:33:00;;;;;;;0.63;0.20;;;-0.80;92.20;;;;;;20973661;28;20408;-44
2024/01/16 01:43:19;;;;;;;0.85;0.20;;;-0.90;92.00;;;;;;20962692;28;20044;-46
2024/01/16 01:53:21;;;;;;;0.70;0.20;;;-0.90;90.70;;;;;;20911954;28;20044;-42
2024/01/16 02:03:26;;;;;;;1.55;0.20;;;-0.70;88.60;;;;;;20919259;28;20113;-43
2024/01/16 02:13:28;;;;;;;0.47;0.13;;;-0.70;88.60;;;;;;20927288;28;20036;-42
2024/01/16 02:23:31;;;;;;;0.52;0.10;;;-0.80;87.70;;;;;;20925737;28;20097;-42
2024/01/16 02:33:33;;;;;;;0.40;0.10;;;-0.90;88.80;;;;;;20913490;28;20104;-44
2024/01/16 02:43:34;;;;;;;0.35;0.10;;;-1.10;86.20;;;;;;20937045;28;20088;-45
2024/01/16 02:53:38;;;;;;;0.10;0.10;;;-1.20;85.60;;;;;;20942282;28;20040;-44
2024/01/16 03:03:40;;;;;;;0.20;0.10;;;-1.20;85.70;;;;;;20951831;28;20040;-45
2024/01/16 03:13:42;;;;;;;0.10;0.00;;;-1.30;85.70;;;;;;20962889;28;20036;-42
2024/01/16 03:23:44;;;;;;;0.13;0.05;;;-1.60;88.40;;;;;;20964342;28;20093;-43
2024/01/16 03:33:45;;;;;;;0.28;0.05;;;-2.40;91.80;;;;;;20946719;28;20044;-43
2024/01/16 03:43:47;;;;;;;0.10;0.10;;;-3.10;92.30;;;;;;20981225;28;20082;-43
2024/01/16 03:53:49;;;;;;;0.20;0.10;;;-3.20;94.00;;;;;;20982821;28;20416;-45
2024/01/16 04:03:51;;;;;;;0.17;0.08;;;-3.40;94.80;;;;;;20982068;28;20563;-44
2024/01/16 04:13:52;;;;;;;0.30;0.00;;;-3.30;92.20;;;;;;20981638;28;20078;-43
2024/01/16 04:23:54;;;;;;;0.57;0.20;;;-2.90;88.90;;;;;;20981141;28;20584;-42
2024/01/16 04:33:56;;;;;;;0.47;0.10;;;-2.30;90.90;;;;;;20990021;28;20637;-46
2024/01/16 04:43:57;;;;;;;0.20;0.10;;;-3.00;93.20;;;;;;20967382;28;20040;-42
2024/01/16 04:53:59;;;;;;;0.10;0.10;;;-3.30;92.40;;;;;;20966132;28;20437;-43
2024/01/16 05:04:00;;;;;;;0.40;0.10;;;-3.40;90.10;;;;;;20967509;28;20065;-42
2024/01/16 05:14:02;;;;;;;0.73;0.20;;;-2.60;88.40;;;;;;20957739;28;20066;-42
2024/01/16 05:24:04;;;;;;;0.73;0.20;;;-1.90;85.30;;;;;;20966547;28;20048;-42
2024/01/16 05:34:06;;;;;;;0.30;0.08;;;-2.10;85.70;;;;;;20964089;28;20060;-43
2024/01/16 05:44:07;;;;;;;0.30;0.00;;;-2.30;85.50;;;;;;20991509;28;20032;-43
2024/01/16 05:54:09;;;;;;;0.20;0.10;;;-2.40;86.80;;;;;;20985320;28;20499;-53
2024/01/16 06:04:11;;;;;;;0.40;0.20;;;-2.60;89.90;;;;;;20987773;28;20108;-45
2024/01/16 06:14:13;;;;;;;0.25;0.10;;;-3.30;90.80;;;;;;20983117;28;20109;-43
2024/01/16 06:24:14;;;;;;;0.28;0.10;;;-3.60;91.70;;;;;;20985198;28;20036;-44
2024/01/16 06:34:16;;;;;;;0.40;0.10;;;-3.80;94.00;;;;;;20968774;28;20056;-43
2024/01/16 06:44:19;;;;;;;1.75;0.10;;;-4.10;94.70;;;;;;20938270;28;20133;-43
2024/01/16 06:54:21;;;;;;;0.28;0.10;;;-4.20;92.90;;;;;;20933100;28;20036;-42
2024/01/16 07:04:23;;;;;;;0.52;0.10;;;-4.20;94.30;;;;;;20939002;28;20062;-42
2024/01/16 07:14:25;;;;;;;0.35;0.10;;;-4.20;93.50;;;;;;20933838;28;20555;-42
2024/01/16 07:24:30;;;;;;;0.60;0.20;;;-4.00;94.30;;;;;;20942007;28;20848;-42
2024/01/16 07:34:34;;;;;;;0.40;0.20;;;-3.80;95.40;;;;;;20935071;28;20467;-42
2024/01/16 07:44:39;;;;;;;0.55;0.20;;;-3.40;95.30;;;;;;20930212;28;20109;-42
2024/01/16 07:54:41;;;;;;;2.10;0.70;;;-3.20;94.80;;;;;;20933816;28;20037;-42
2024/01/16 08:04:42;;;;;;;0.63;0.43;;;-2.70;97.70;;;;;;20943226;28;20101;-42
2024/01/16 08:14:45;;;;;;;0.73;0.32;;;-2.00;97.30;;;;;;20953532;28;20064;-43
2024/01/16 08:24:47;;;;;;;1.95;1.00;;;-1.30;97.70;;;;;;20953726;28;20066;-42
2024/01/16 08:34:49;;;;;;;1.33;0.60;;;-0.30;98.20;;;;;;20965793;28;20059;-45
2024/01/16 08:44:51;;;;;;;1.42;0.30;;;0.70;96.70;;;;;;20992860;28;20036;-47
2024/01/16 08:54:52;;;;;;;1.60;0.60;;;1.60;91.40;;;;;;20969930;28;20558;-42
2024/01/16 09:04:55;;;;;;;3.40;0.65;;;2.30;91.50;;;;;;20989265;28;20047;-44
2024/01/16 09:14:56;;;;;;;2.72;0.90;;;3.10;92.50;;;;;;20989095;28;20437;-43
2024/01/16 09:24:58;;;;;;;1.58;0.98;;;3.80;93.00;;;;;;20984799;28;20040;-43
2024/01/16 09:35:02;;;;;;;1.55;0.80;;;4.50;92.90;;;;;;20921032;28;20060;-43
2024/01/16 09:45:04;;;;;;;1.63;0.95;;;4.70;91.50;;;;;;20906324;28;20040;-43
2024/01/16 09:55:06;;;;;;;2.35;1.08;;;4.30;91.20;;;;;;20905437;28;20036;-43
2024/01/16 10:05:10;;;;;;;1.30;0.90;;;4.60;91.80;;;;;;20906672;28;20044;-42
2024/01/16 10:15:15;;;;;;;1.88;1.20;;;4.60;91.10;;;;;;20903512;28;20066;-42
2024/01/16 10:25:19;;;;;;;2.10;1.08;;;4.40;91.10;;;;;;20896259;28;20067;-47
2024/01/16 10:35:21;;;;;;;1.80;1.10;;;4.20;91.60;;;;;;20885460;28;20114;-42
2024/01/16 10:45:23;;;;;;;1.25;0.80;;;3.80;91.70;;;;;;20883462;28;20048;-43
2024/01/16 10:55:27;;;;;;;3.05;1.40;;;3.90;91.80;;;;;;20900892;28;20062;-44
2024/01/16 11:05:33;;;;;;;3.10;1.27;;;3.60;92.00;;;;;;20883418;28;20036;-43
2024/01/16 11:15:38;;;;;;;2.92;1.58;;;3.90;92.40;;;;;;20900137;28;20660;-43
2024/01/16 11:25:39;;;;;;;1.90;1.40;;;4.60;92.60;;;;;;20898186;28;20028;-43
2024/01/16 11:35:41;;;;;;;2.17;1.52;;;5.50;91.40;;;;;;20901136;28;20056;-43
2024/01/16 11:45:43;;;;;;;2.53;1.10;;;5.80;89.70;;;;;;20899920;28;20661;-43
2024/01/16 11:55:53;;;;;;;2.75;1.70;;;6.10;90.60;;;;;;20898467;28;20032;-43
2024/01/16 12:05:55;;;;;;;;;;;6.30;90.70;;;;;;20899073;28;20621;-43
2024/01/16 12:16:04;;;;;;;2.78;1.48;;;6.30;88.80;;;;;;20898455;28;19973;-43
2024/01/16 12:26:05;;;;;;;3.92;1.95;;;6.30;90.30;;;;;;20919895;28;20040;-44
2024/01/16 12:36:09;;;;;;;2.90;1.77;;;6.00;90.50;;;;;;20913895;28;20055;-44
2024/01/16 12:46:12;;;;;;;2.75;1.90;;;6.10;91.00;;;;;;20871056;28;20125;-43
2024/01/16 12:56:22;;;;;;;4.03;2.60;;;6.10;90.90;;;;;;20877839;28;20122;-43
2024/01/16 13:06:24;;;;;;;4.90;2.83;;;5.60;92.10;;;;;;20879655;28;20102;-43
2024/01/16 13:16:26;;;;;;;5.15;2.80;;;5.30;92.70;;;;;;20881284;28;20443;-43
2024/01/16 13:26:28;;;;;;;4.50;2.80;;;4.60;93.00;;;;;;20880822;28;20036;-43
2024/01/16 13:36:30;;;;;;;4.30;2.95;;;4.10;94.00;;;;;;20898790;28;20521;-43
2024/01/16 13:46:32;;;;;;;4.28;3.00;;;3.80;94.80;;;;;;20916335;28;20089;-43
2024/01/16 13:56:38;;;;;;;6.50;3.47;;;3.50;94.90;;;;;;20915236;28;20036;-43
2024/01/16 14:06:40;;;;;;;4.40;3.10;;;3.20;95.30;;;;;;20914431;28;20366;-47
2024/01/16 14:16:42;;;;;;;6.10;3.00;;;2.70;95.80;;;;;;20915934;28;20036;-45
2024/01/16 14:26:45;;;;;;;7.25;3.38;;;2.20;97.20;;;;;;20913858;28;20044;-43
2024/01/16 14:36:47;;;;;;;7.88;4.18;;;2.10;98.40;;;;;;20912834;28;20112;-45
2024/01/16 14:46:49;;;;;;;7.05;4.28;;;1.80;98.90;;;;;;20910783;28;21049;-43
2024/01/16 14:56:51;;;;;;;7.63;4.00;;;1.40;99.90;;;;;;20911976;28;20093;-43
2024/01/16 15:06:55;;;;;;;9.75;5.15;;;1.10;99.90;;;;;;20907704;28;20040;-43
2024/01/16 15:16:57;;;;;;;9.32;4.97;;;0.80;99.90;;;;;;20911078;28;20069;-44
2024/01/16 15:26:59;;;;;;;9.25;5.70;;;0.20;99.90;;;;;;20910454;28;20043;-51
2024/01/16 15:37:00;;;;;;;10.07;6.28;;;-0.60;99.90;;;;;;20864131;28;20137;-42
2024/01/16 15:47:03;;;;;;;16.23;9.00;;;-1.20;99.90;;;;;;20868655;28;20040;-44
2024/01/16 15:57:05;;;;;;;13.13;7.65;;;-1.70;99.90;;;;;;20866365;28;20108;-42
2024/01/16 16:07:07;;;;;;;18.55;9.07;;;-2.10;99.90;;;;;;20869073;28;21205;-42
2024/01/16 16:17:09;;;;;;;17.35;8.60;;;-2.40;99.90;;;;;;20866725;28;20044;-43
2024/01/16 16:27:28;;;;;;;16.30;8.02;;;-2.70;99.90;;;;;;20862831;28;20121;-43
2024/01/16 16:37:30;;;;;;;15.57;8.57;;;-2.90;99.90;;;;;;20880757;28;20113;-43
2024/01/16 16:47:32;;;;;;;15.63;8.88;;;-2.90;99.90;;;;;;20885725;28;20086;-43
2024/01/16 16:57:37;;;;;;;17.73;8.57;;;-3.10;99.90;;;;;;20870389;28;20125;-43
2024/01/16 17:07:38;;;;;;;14.75;8.45;;;-3.10;99.90;;;;;;20882695;28;20098;-43
2024/01/16 17:17:40;;;;;;;18.58;10.15;;;-2.90;99.90;;;;;;20881330;28;20615;-43
2024/01/16 17:27:44;;;;;;;20.90;10.77;;;-2.70;99.90;;;;;;20878481;28;20105;-45
2024/01/16 17:37:46;;;;;;;23.58;12.75;;;-2.40;99.90;;;;;;20904607;28;20471;-44
2024/01/16 17:47:48;;;;;;;22.92;12.20;;;-2.00;99.90;;;;;;20920204;28;20040;-46
2024/01/16 17:57:50;;;;;;;19.80;10.82;;;-1.70;99.90;;;;;;20920283;28;20036;-44
2024/01/16 18:07:51;;;;;;;24.40;12.88;;;-1.50;99.90;;;;;;20918741;28;20093;-43
2024/01/16 18:17:53;;;;;;;23.45;13.10;;;-1.40;99.90;;;;;;20918569;28;20036;-43
2024/01/16 18:27:59;;;;;;;22.23;13.15;;;-1.30;99.90;;;;;;20895750;28;21147;-46
2024/01/16 18:38:01;;;;;;;23.30;12.23;;;-1.20;99.90;;;;;;20889836;28;20056;-46
2024/01/16 18:48:03;;;;;;;20.85;11.70;;;-1.20;99.90;;;;;;20874948;28;20070;-42
2024/01/16 18:58:07;;;;;;;21.15;11.40;;;-1.20;99.90;;;;;;20853421;28;20405;-42
2024/01/16 19:08:10;;;;;;;20.60;10.55;;;-1.20;99.90;;;;;;20869300;28;20105;-43
2024/01/16 19:18:13;;;;;;;17.65;10.38;;;-1.20;99.90;;;;;;20871342;28;20041;-44
2024/01/16 19:28:14;;;;;;;17.88;10.57;;;-1.10;99.90;;;;;;20852064;28;20036;-44
2024/01/16 19:38:16;;;;;;;21.67;11.48;;;-1.30;99.90;;;;;;20874422;28;20556;-42
2024/01/16 19:48:19;;;;;;;17.73;10.13;;;-1.50;99.90;;;;;;20871212;28;20655;-46
2024/01/16 19:58:30;;;;;;;16.00;8.85;;;-1.60;99.90;;;;;;20878265;28;21254;-44
2024/01/16 20:08:32;;;;;;;19.45;10.02;;;-1.50;99.90;;;;;;20891315;28;20074;-43
2024/01/16 20:18:34;;;;;;;15.57;8.32;;;-1.30;99.90;;;;;;20860651;28;20078;-43
2024/01/16 20:28:36;;;;;;;12.93;7.93;;;-1.20;99.90;;;;;;20886043;28;20101;-43
2024/01/16 20:38:39;;;;;;;12.95;7.10;;;-1.10;99.90;;;;;;20882407;28;20057;-44
2024/01/16 20:48:41;;;;;;;13.93;6.97;;;-1.00;99.90;;;;;;20885465;28;20031;-46
2024/01/16 20:58:43;;;;;;;11.73;6.00;;;-0.90;99.90;;;;;;20880925;28;20035;-43
2024/01/16 21:08:46;;;;;;;12.15;6.25;;;-0.80;99.90;;;;;;20883319;28;20137;-44
2024/01/16 21:18:49;;;;;;;9.95;6.15;;;-0.70;99.90;;;;;;20879108;28;20048;-44
2024/01/16 21:28:51;;;;;;;11.60;6.70;;;-0.60;99.90;;;;;;20882708;28;20067;-43
2024/01/16 21:38:56;;;;;;;11.40;6.38;;;-0.50;99.90;;;;;;20878371;28;20111;-45
2024/01/16 21:48:59;;;;;;;11.05;6.60;;;-0.50;99.90;;;;;;20878735;28;20105;-43
2024/01/16 21:59:04;;;;;;;12.93;7.57;;;-0.40;99.90;;;;;;20876743;28;20131;-43
2024/01/16 22:09:06;;;;;;;15.85;7.80;;;-0.40;99.90;;;;;;20876491;28;20040;-42
2024/01/16 22:19:08;;;;;;;12.50;6.97;;;-0.40;99.90;;;;;;20879371;28;20097;-43
2024/01/16 22:29:10;;;;;;;18.08;8.00;;;-0.40;99.90;;;;;;20874390;28;20086;-42
2024/01/16 22:39:15;;;;;;;20.23;8.00;;;-0.30;99.90;;;;;;20873438;28;20126;-43
2024/01/16 22:49:17;;;;;;;15.02;8.70;;;-0.20;99.90;;;;;;20867417;28;20086;-43
2024/01/16 22:59:20;;;;;;;13.30;7.25;;;-0.30;99.90;;;;;;20869875;28;20040;-57
2024/01/16 23:09:22;;;;;;;15.15;8.25;;;-0.40;99.90;;;;;;20871433;28;20049;-43
2024/01/16 23:19:24;;;;;;;16.02;8.35;;;-0.50;99.90;;;;;;20872105;28;20100;-43
2024/01/16 23:29:25;;;;;;;19.63;8.48;;;-0.60;99.90;;;;;;20868727;28;20044;-43
2024/01/16 23:39:29;;;;;;;16.63;8.75;;;-0.60;99.90;;;;;;20870349;28;20129;-43
2024/01/16 23:49:34;;;;;;;19.95;10.80;;;-0.40;99.90;;;;;;20867465;28;20040;-43
2024/01/16 23:59:36;;;;;;;21.67;9.52;;;-0.70;99.90;;;;;;20871310;28;20032;-42
